Time;durP1;ratioP1;P1;durP2;ratioP2;P2;SDS_P1;SDS_P2;PMS_P1;PMS_P2;Temp;Humidity;BMP_temperature;BMP_pressure;BME280_temperature;BME280_humidity;BME280_pressure;Samples;Min_cycle;Max_cycle;Signal;HPM_P1;HPM_P2
2022/03/18 00:01:43;;;;;;;1.92;0.60;;;;;;;;;;5088034;27;20049;-55
2022/03/18 00:04:11;;;;;;;9.27;0.80;;;;;;;;;;5005127;28;20053;-58
2022/03/18 00:06:36;;;;;;;2.00;0.60;;;;;;;;;;5003218;28;20545;-56
2022/03/18 00:09:02;;;;;;;1.63;0.60;;;;;;;;;;5004835;28;20037;-56
2022/03/18 00:11:28;;;;;;;3.60;0.80;;;;;;;;;;5005446;27;20444;-57
2022/03/18 00:13:55;;;;;;;4.40;0.60;;;;;;;;;;5004032;28;20037;-53
2022/03/18 00:16:21;;;;;;;4.20;1.00;;;;;;;;;;5003862;28;20049;-55
2022/03/18 00:18:47;;;;;;;2.38;0.70;;;;;;;;;;5005267;28;20051;-56
2022/03/18 00:21:13;;;;;;;1.98;0.50;;;;;;;;;;5005479;28;20053;-57
2022/03/18 00:23:39;;;;;;;2.78;0.57;;;;;;;;;;5003280;28;20069;-56
2022/03/18 00:26:05;;;;;;;3.85;1.10;;;;;;;;;;5004917;28;20034;-54
2022/03/18 00:28:30;;;;;;;3.00;0.80;;;;;;;;;;5003642;28;20044;-56
2022/03/18 00:30:57;;;;;;;2.83;0.75;;;;;;;;;;5003550;28;20062;-55
2022/03/18 00:33:23;;;;;;;2.90;0.80;;;;;;;;;;5002492;28;20839;-57
2022/03/18 00:35:49;;;;;;;2.03;0.60;;;;;;;;;;5005489;28;20164;-56
2022/03/18 00:38:15;;;;;;;3.47;0.60;;;;;;;;;;5006202;27;20093;-54
2022/03/18 00:40:41;;;;;;;2.15;0.70;;;;;;;;;;5003073;28;20034;-56
2022/03/18 00:43:07;;;;;;;1.70;0.50;;;;;;;;;;5002487;28;20423;-55
2022/03/18 00:45:33;;;;;;;2.50;0.80;;;;;;;;;;5005139;28;20091;-55
2022/03/18 00:53:27;;;;;;;3.47;0.98;;;;;;;;;;5002788;27;20052;-55
2022/03/18 00:55:53;;;;;;;4.00;0.80;;;;;;;;;;5003669;28;20033;-54
2022/03/18 00:58:19;;;;;;;2.80;0.60;;;;;;;;;;5002702;27;20046;-55
2022/03/18 01:00:45;;;;;;;3.50;0.70;;;;;;;;;;5002737;28;20049;-54
2022/03/18 01:03:11;;;;;;;3.03;0.65;;;;;;;;;;5002080;28;20057;-55
2022/03/18 01:05:36;;;;;;;5.15;0.75;;;;;;;;;;5002160;28;24900;-55
2022/03/18 01:08:02;;;;;;;2.65;0.65;;;;;;;;;;5002454;28;20042;-57
2022/03/18 01:10:28;;;;;;;2.75;0.70;;;;;;;;;;5002527;28;20101;-53
2022/03/18 01:12:54;;;;;;;2.65;0.90;;;;;;;;;;5003463;28;20079;-56
2022/03/18 01:15:20;;;;;;;8.35;0.93;;;;;;;;;;5003403;28;20038;-56
2022/03/18 01:17:46;;;;;;;10.40;1.15;;;;;;;;;;5002995;28;20991;-55
2022/03/18 01:20:12;;;;;;;3.78;0.98;;;;;;;;;;5002443;28;20037;-54
2022/03/18 01:22:38;;;;;;;3.83;0.93;;;;;;;;;;5002990;28;20054;-55
2022/03/18 01:25:04;;;;;;;2.67;0.52;;;;;;;;;;5002963;28;20036;-53
2022/03/18 01:27:30;;;;;;;2.92;0.60;;;;;;;;;;5086502;27;20069;-53
2022/03/18 01:29:56;;;;;;;3.58;0.85;;;;;;;;;;5004228;28;20041;-56
2022/03/18 01:32:22;;;;;;;3.97;0.98;;;;;;;;;;5002965;28;20042;-56
2022/03/18 01:34:48;;;;;;;7.88;1.40;;;;;;;;;;5003235;28;20110;-55
2022/03/18 01:37:14;;;;;;;8.88;1.08;;;;;;;;;;5004103;28;20123;-58
2022/03/18 01:39:40;;;;;;;6.93;1.10;;;;;;;;;;5002019;28;20042;-55
2022/03/18 01:42:06;;;;;;;7.80;1.05;;;;;;;;;;5004704;28;20114;-56
2022/03/18 01:44:38;;;;;;;6.07;1.33;;;;;;;;;;4987959;28;20060;-55
2022/03/18 01:47:04;;;;;;;4.28;1.05;;;;;;;;;;5004530;28;20149;-55
2022/03/18 01:49:30;;;;;;;10.13;1.27;;;;;;;;;;5004815;28;20084;-55
2022/03/18 01:51:56;;;;;;;7.32;1.58;;;;;;;;;;5008208;28;20073;-57
2022/03/18 01:57:07;;;;;;;5.13;1.20;;;;;;;;;;5010157;28;20568;-54
2022/03/18 01:59:33;;;;;;;5.78;1.08;;;;;;;;;;5007056;28;20079;-54
2022/03/18 02:01:58;;;;;;;8.73;1.17;;;;;;;;;;5010239;28;20030;-55
2022/03/18 02:04:24;;;;;;;5.13;0.90;;;;;;;;;;5005902;28;20041;-53
2022/03/18 02:06:51;;;;;;;10.82;1.17;;;;;;;;;;4990194;28;20072;-57
2022/03/18 02:09:18;;;;;;;6.45;1.10;;;;;;;;;;5005993;28;20033;-55
2022/03/18 02:11:44;;;;;;;5.82;1.17;;;;;;;;;;5009923;27;20144;-55
2022/03/18 02:14:10;;;;;;;10.63;1.10;;;;;;;;;;5008045;28;20045;-56
2022/03/18 02:16:39;;;;;;;6.22;1.27;;;;;;;;;;5006308;28;20536;-55
2022/03/18 02:19:06;;;;;;;4.75;0.63;;;;;;;;;;5007776;28;20034;-55
2022/03/18 02:21:34;;;;;;;3.95;0.85;;;;;;;;;;5006401;28;20664;-54
2022/03/18 02:24:00;;;;;;;2.45;0.63;;;;;;;;;;5007971;28;20053;-57
2022/03/18 02:26:26;;;;;;;6.53;0.98;;;;;;;;;;5007587;28;20042;-54
2022/03/18 02:28:52;;;;;;;1.58;0.50;;;;;;;;;;5009402;28;20037;-55
2022/03/18 02:31:18;;;;;;;2.50;0.80;;;;;;;;;;5005968;28;20040;-57
2022/03/18 02:33:44;;;;;;;2.38;0.70;;;;;;;;;;5009634;27;20049;-55
2022/03/18 02:36:10;;;;;;;3.47;0.63;;;;;;;;;;5008817;28;20066;-53
2022/03/18 02:38:36;;;;;;;5.72;0.93;;;;;;;;;;5008159;28;20046;-54
2022/03/18 02:41:02;;;;;;;3.90;0.90;;;;;;;;;;5009776;27;20038;-55
2022/03/18 02:43:28;;;;;;;4.60;0.70;;;;;;;;;;5007792;28;20636;-54
2022/03/18 02:45:54;;;;;;;2.00;0.73;;;;;;;;;;5009742;28;20486;-55
2022/03/18 02:48:20;;;;;;;2.40;0.70;;;;;;;;;;5007494;28;20065;-55
2022/03/18 02:50:45;;;;;;;4.43;0.77;;;;;;;;;;5007763;28;20060;-55
2022/03/18 02:53:11;;;;;;;5.20;0.80;;;;;;;;;;5007421;28;20148;-55
2022/03/18 02:55:37;;;;;;;2.97;0.77;;;;;;;;;;5007525;28;20053;-55
2022/03/18 02:58:04;;;;;;;3.45;0.70;;;;;;;;;;5009004;27;20359;-55
2022/03/18 03:00:29;;;;;;;3.03;0.88;;;;;;;;;;5006864;28;20080;-55
2022/03/18 03:02:55;;;;;;;5.25;0.80;;;;;;;;;;4988129;28;20045;-53
2022/03/18 03:08:06;;;;;;;5.15;0.80;;;;;;;;;;5007250;27;20051;-56
2022/03/18 03:10:33;;;;;;;2.40;0.80;;;;;;;;;;5006296;28;20026;-54
2022/03/18 03:13:00;;;;;;;4.10;0.80;;;;;;;;;;5005950;28;20042;-54
2022/03/18 03:15:26;;;;;;;3.50;1.05;;;;;;;;;;5003910;28;20041;-53
2022/03/18 03:17:52;;;;;;;8.75;4.35;;;;;;;;;;5007855;27;20176;-52
2022/03/18 03:20:18;;;;;;;3.65;0.85;;;;;;;;;;5005862;28;20093;-56
2022/03/18 03:22:44;;;;;;;2.05;0.70;;;;;;;;;;5004770;28;20157;-52
2022/03/18 03:25:10;;;;;;;6.18;1.08;;;;;;;;;;5007402;27;20814;-54
2022/03/18 03:27:36;;;;;;;5.97;1.00;;;;;;;;;;5006639;28;20042;-53
2022/03/18 03:30:06;;;;;;;2.85;0.93;;;;;;;;;;5008283;28;20107;-55
2022/03/18 03:32:31;;;;;;;11.60;1.20;;;;;;;;;;5006386;28;20041;-55
2022/03/18 03:34:58;;;;;;;7.82;1.33;;;;;;;;;;5008488;28;20049;-54
2022/03/18 03:37:24;;;;;;;8.18;1.05;;;;;;;;;;5005671;28;20656;-53
2022/03/18 03:39:50;;;;;;;4.20;0.90;;;;;;;;;;5005709;28;20057;-54
2022/03/18 03:42:16;;;;;;;1.40;0.52;;;;;;;;;;5007101;28;20149;-54
2022/03/18 03:44:42;;;;;;;2.92;0.70;;;;;;;;;;5005538;28;20052;-53
2022/03/18 03:47:08;;;;;;;5.85;0.70;;;;;;;;;;4985637;28;20705;-54
2022/03/18 03:49:34;;;;;;;2.38;0.50;;;;;;;;;;5006738;28;20057;-52
2022/03/18 03:52:00;;;;;;;2.13;0.70;;;;;;;;;;5006206;28;20049;-55
2022/03/18 03:54:29;;;;;;;3.70;0.75;;;;;;;;;;5005641;28;20034;-54
2022/03/18 03:56:55;;;;;;;2.33;0.60;;;;;;;;;;5006322;28;20542;-56
2022/03/18 03:59:24;;;;;;;2.83;0.73;;;;;;;;;;5005644;28;20053;-56
2022/03/18 04:01:50;;;;;;;4.40;0.70;;;;;;;;;;5003738;27;20038;-56
2022/03/18 04:04:16;;;;;;;3.53;0.60;;;;;;;;;;5006202;28;20080;-56
2022/03/18 04:06:43;;;;;;;5.35;1.00;;;;;;;;;;5006230;28;20125;-56
2022/03/18 04:09:09;;;;;;;2.88;0.77;;;;;;;;;;5004905;28;20526;-56
2022/03/18 04:11:34;;;;;;;2.55;0.63;;;;;;;;;;5005421;28;20099;-56
2022/03/18 04:14:00;;;;;;;2.65;0.75;;;;;;;;;;4986245;28;20060;-55
2022/03/18 04:16:26;;;;;;;4.25;0.75;;;;;;;;;;5003268;28;20033;-55
2022/03/18 04:18:52;;;;;;;4.28;0.95;;;;;;;;;;5005740;28;20041;-55
2022/03/18 04:21:18;;;;;;;8.50;1.10;;;;;;;;;;5004830;27;20049;-53
2022/03/18 04:23:44;;;;;;;4.20;0.90;;;;;;;;;;5004681;28;20054;-54
2022/03/18 04:26:10;;;;;;;4.40;0.90;;;;;;;;;;5005054;28;20102;-52
2022/03/18 04:28:36;;;;;;;3.38;0.90;;;;;;;;;;5003615;28;20454;-55
2022/03/18 04:31:02;;;;;;;3.85;1.02;;;;;;;;;;5005385;28;20052;-54
2022/03/18 04:33:27;;;;;;;3.95;1.00;;;;;;;;;;5005524;28;20398;-54
2022/03/18 04:35:53;;;;;;;3.15;0.90;;;;;;;;;;5005979;28;20062;-54
2022/03/18 04:38:19;;;;;;;5.90;0.88;;;;;;;;;;5003110;28;20049;-55
2022/03/18 04:40:45;;;;;;;2.83;0.60;;;;;;;;;;5005747;28;20044;-55
2022/03/18 04:43:11;;;;;;;4.80;0.77;;;;;;;;;;5005293;27;20207;-52
2022/03/18 04:45:37;;;;;;;3.17;0.93;;;;;;;;;;5003253;27;20063;-55
2022/03/18 04:48:03;;;;;;;2.42;0.70;;;;;;;;;;5024602;27;20557;-56
2022/03/18 04:50:29;;;;;;;2.20;0.70;;;;;;;;;;5054570;27;20046;-57
2022/03/18 04:52:56;;;;;;;2.88;0.88;;;;;;;;;;5020295;27;20039;-57
2022/03/18 04:55:24;;;;;;;2.30;0.70;;;;;;;;;;5060124;27;20045;-55
2022/03/18 04:57:50;;;;;;;2.22;0.52;;;;;;;;;;5005054;28;20038;-55
2022/03/18 05:00:17;;;;;;;1.13;0.43;;;;;;;;;;5004054;28;20042;-55
2022/03/18 05:02:43;;;;;;;2.13;0.60;;;;;;;;;;5002287;28;20170;-55
2022/03/18 05:05:10;;;;;;;3.40;0.65;;;;;;;;;;5004214;28;20101;-56
2022/03/18 05:07:38;;;;;;;1.52;0.50;;;;;;;;;;5005102;28;20038;-56
2022/03/18 05:10:05;;;;;;;2.05;0.60;;;;;;;;;;5004651;28;20053;-56
2022/03/18 05:12:31;;;;;;;1.30;0.50;;;;;;;;;;5004611;28;20038;-56
2022/03/18 05:14:57;;;;;;;2.08;0.63;;;;;;;;;;5088331;27;20449;-56
2022/03/18 05:17:23;;;;;;;2.25;0.50;;;;;;;;;;5004253;28;20143;-54
2022/03/18 05:19:49;;;;;;;1.52;0.45;;;;;;;;;;5004093;28;20506;-54
2022/03/18 05:22:15;;;;;;;1.48;0.50;;;;;;;;;;5001968;28;20086;-54
2022/03/18 05:24:41;;;;;;;1.75;0.60;;;;;;;;;;5003663;28;20725;-56
2022/03/18 05:27:07;;;;;;;1.42;0.50;;;;;;;;;;5002333;28;20052;-54
2022/03/18 05:29:33;;;;;;;1.52;0.47;;;;;;;;;;5003814;28;20038;-54
2022/03/18 05:32:00;;;;;;;1.70;0.47;;;;;;;;;;5003219;28;20069;-54
2022/03/18 05:34:26;;;;;;;1.20;0.50;;;;;;;;;;5005766;28;20042;-55
2022/03/18 05:36:52;;;;;;;1.23;0.50;;;;;;;;;;5018112;27;20043;-54
2022/03/18 05:39:18;;;;;;;5.55;0.70;;;;;;;;;;5064996;27;20038;-57
2022/03/18 05:41:47;;;;;;;1.27;0.40;;;;;;;;;;5005382;28;20053;-54
2022/03/18 05:44:13;;;;;;;3.83;0.60;;;;;;;;;;5002870;28;20053;-54
2022/03/18 05:46:39;;;;;;;1.30;0.40;;;;;;;;;;5004507;28;20143;-55
2022/03/18 05:49:07;;;;;;;1.30;0.40;;;;;;;;;;5005238;28;20156;-53
2022/03/18 05:51:33;;;;;;;2.58;0.50;;;;;;;;;;5003348;28;20689;-53
2022/03/18 05:53:59;;;;;;;1.20;0.50;;;;;;;;;;5004289;28;20135;-52
2022/03/18 05:59:14;;;;;;;1.45;0.50;;;;;;;;;;5006067;28;20048;-53
2022/03/18 06:01:41;;;;;;;2.50;0.70;;;;;;;;;;5004788;27;20102;-53
2022/03/18 06:04:10;;;;;;;1.05;0.40;;;;;;;;;;5005798;28;20049;-56
2022/03/18 06:06:39;;;;;;;1.13;0.43;;;;;;;;;;5003215;28;20057;-54
2022/03/18 06:11:51;;;;;;;1.48;0.40;;;;;;;;;;5001457;28;20098;-57
2022/03/18 06:14:18;;;;;;;1.25;0.50;;;;;;;;;;5003419;28;20046;-52
2022/03/18 06:16:44;;;;;;;5.25;0.52;;;;;;;;;;5004910;28;20033;-56
2022/03/18 06:19:11;;;;;;;2.40;0.60;;;;;;;;;;4987328;28;20150;-55
2022/03/18 06:21:37;;;;;;;0.95;0.40;;;;;;;;;;5001121;28;22406;-55
2022/03/18 06:24:03;;;;;;;2.55;0.60;;;;;;;;;;5003503;28;20075;-55
2022/03/18 06:26:31;;;;;;;1.40;0.40;;;;;;;;;;5003730;28;20037;-54
2022/03/18 06:28:56;;;;;;;2.08;0.50;;;;;;;;;;5005503;28;20639;-55
2022/03/18 06:31:22;;;;;;;1.23;0.50;;;;;;;;;;5001854;28;20046;-52
2022/03/18 06:33:48;;;;;;;1.48;0.40;;;;;;;;;;5001660;28;20061;-54
2022/03/18 06:36:14;;;;;;;1.83;0.57;;;;;;;;;;5001733;28;20501;-55
2022/03/18 06:38:41;;;;;;;1.17;0.50;;;;;;;;;;5006597;28;20709;-56
2022/03/18 06:41:07;;;;;;;2.15;0.50;;;;;;;;;;5005269;28;20657;-54
2022/03/18 06:43:33;;;;;;;6.32;0.63;;;;;;;;;;5005091;28;20189;-56
2022/03/18 06:45:59;;;;;;;1.15;0.40;;;;;;;;;;5006368;28;22569;-54
2022/03/18 06:48:25;;;;;;;1.30;0.50;;;;;;;;;;5005634;28;20040;-56
2022/03/18 06:50:51;;;;;;;1.83;0.40;;;;;;;;;;5007682;27;20502;-55
2022/03/18 06:53:17;;;;;;;1.42;0.45;;;;;;;;;;5006031;28;20478;-54
2022/03/18 06:55:43;;;;;;;1.35;0.50;;;;;;;;;;5006066;28;20049;-55
2022/03/18 06:58:09;;;;;;;1.50;0.40;;;;;;;;;;5008858;27;20038;-55
2022/03/18 07:00:40;;;;;;;2.33;0.60;;;;;;;;;;4986624;28;20030;-54
2022/03/18 07:03:07;;;;;;;1.15;0.40;;;;;;;;;;4991039;28;20107;-55
2022/03/18 07:05:33;;;;;;;3.67;0.50;;;;;;;;;;5005743;28;20037;-54
2022/03/18 07:07:59;;;;;;;3.45;0.50;;;;;;;;;;5007031;27;20045;-55
2022/03/18 07:10:25;;;;;;;3.80;0.52;;;;;;;;;;5043306;27;20039;-54
2022/03/18 07:12:51;;;;;;;1.27;0.40;;;;;;;;;;5041119;27;20118;-56
2022/03/18 07:15:16;;;;;;;1.20;0.40;;;;;;;;;;5005355;28;20039;-55
2022/03/18 07:17:55;;;;;;;1.80;0.50;;;;;;;;;;5004316;28;20050;-55
2022/03/18 07:20:34;;;;;;;3.85;0.50;;;;;;;;;;5004595;28;20071;-55
2022/03/18 07:23:07;;;;;;;1.48;0.50;;;;;;;;;;5003668;28;20179;-53
2022/03/18 07:25:34;;;;;;;2.67;0.50;;;;;;;;;;5005526;28;20045;-53
2022/03/18 07:28:00;;;;;;;2.67;0.70;;;;;;;;;;5004481;28;20542;-53
2022/03/18 07:30:26;;;;;;;1.50;0.40;;;;;;;;;;5003108;28;20045;-54
2022/03/18 07:32:52;;;;;;;1.23;0.43;;;;;;;;;;5004397;28;20249;-55
2022/03/18 07:35:18;;;;;;;1.23;0.45;;;;;;;;;;5006439;28;20069;-55
2022/03/18 07:37:44;;;;;;;1.73;0.40;;;;;;;;;;5005048;28;20038;-54
2022/03/18 07:40:11;;;;;;;0.82;0.40;;;;;;;;;;5005535;28;20051;-55
2022/03/18 07:42:43;;;;;;;4.05;0.50;;;;;;;;;;5003407;28;20442;-56
2022/03/18 07:45:16;;;;;;;1.90;0.50;;;;;;;;;;5089142;27;20050;-55
2022/03/18 07:47:42;;;;;;;0.95;0.40;;;;;;;;;;5005671;28;20049;-56
2022/03/18 07:50:08;;;;;;;1.35;0.45;;;;;;;;;;4988464;28;20042;-55
2022/03/18 07:52:34;;;;;;;1.30;0.50;;;;;;;;;;5000229;28;20033;-53
2022/03/18 07:55:00;;;;;;;2.92;0.47;;;;;;;;;;5088562;27;20045;-55
2022/03/18 07:57:27;;;;;;;1.17;0.40;;;;;;;;;;5005722;28;20037;-56
2022/03/18 07:59:52;;;;;;;1.40;0.47;;;;;;;;;;5005263;28;20038;-54
2022/03/18 08:02:18;;;;;;;1.52;0.40;;;;;;;;;;5005613;28;20050;-55
2022/03/18 08:04:45;;;;;;;1.50;0.50;;;;;;;;;;5006989;28;20052;-55
2022/03/18 08:07:11;;;;;;;1.33;0.40;;;;;;;;;;5006296;28;20448;-55
2022/03/18 08:09:37;;;;;;;1.05;0.40;;;;;;;;;;5005387;28;20961;-53
2022/03/18 08:12:03;;;;;;;1.55;0.43;;;;;;;;;;5004964;28;20034;-52
2022/03/18 08:14:29;;;;;;;3.92;0.50;;;;;;;;;;5006795;28;20033;-55
2022/03/18 08:16:56;;;;;;;1.30;0.50;;;;;;;;;;5008941;27;20505;-55
2022/03/18 08:19:21;;;;;;;1.27;0.45;;;;;;;;;;5006576;28;20090;-54
2022/03/18 08:21:47;;;;;;;1.92;0.57;;;;;;;;;;5004397;28;20120;-55
2022/03/18 08:24:13;;;;;;;0.60;0.38;;;;;;;;;;5005637;28;20131;-55
2022/03/18 08:26:39;;;;;;;1.55;0.50;;;;;;;;;;5006541;27;20072;-56
2022/03/18 08:29:05;;;;;;;1.48;0.40;;;;;;;;;;5005639;28;20402;-55
2022/03/18 08:31:31;;;;;;;1.27;0.47;;;;;;;;;;5005929;28;20631;-55
2022/03/18 08:33:57;;;;;;;1.30;0.40;;;;;;;;;;5003239;28;20064;-55
2022/03/18 08:36:23;;;;;;;1.45;0.40;;;;;;;;;;5003037;28;20072;-55
2022/03/18 08:38:49;;;;;;;1.85;0.50;;;;;;;;;;5005338;28;20491;-55
2022/03/18 08:41:15;;;;;;;1.55;0.40;;;;;;;;;;5004217;28;20033;-55
2022/03/18 08:43:41;;;;;;;1.38;0.40;;;;;;;;;;5004100;28;20164;-55
2022/03/18 08:46:07;;;;;;;0.77;0.38;;;;;;;;;;5006058;28;20044;-54
2022/03/18 08:48:33;;;;;;;1.05;0.40;;;;;;;;;;5006469;28;20155;-55
2022/03/18 08:50:59;;;;;;;1.13;0.40;;;;;;;;;;5009627;28;20037;-55
2022/03/18 08:53:25;;;;;;;1.58;0.50;;;;;;;;;;5006337;28;20040;-54
2022/03/18 08:55:50;;;;;;;1.77;0.50;;;;;;;;;;5005745;28;20073;-54
2022/03/18 08:58:16;;;;;;;3.20;0.60;;;;;;;;;;5009980;28;20120;-53
2022/03/18 09:00:42;;;;;;;1.48;0.50;;;;;;;;;;5005164;28;20054;-55
2022/03/18 09:03:08;;;;;;;0.68;0.32;;;;;;;;;;5004427;28;20053;-54
2022/03/18 09:05:34;;;;;;;1.45;0.50;;;;;;;;;;5004897;28;20399;-56
2022/03/18 09:08:00;;;;;;;1.48;0.50;;;;;;;;;;5006309;28;20091;-55
2022/03/18 09:10:26;;;;;;;0.98;0.40;;;;;;;;;;5003497;28;20041;-54
2022/03/18 09:12:58;;;;;;;1.40;0.40;;;;;;;;;;5003125;28;20083;-55
2022/03/18 09:15:25;;;;;;;2.08;0.60;;;;;;;;;;5002922;28;20041;-54
2022/03/18 09:17:51;;;;;;;3.03;0.60;;;;;;;;;;5004436;28;20484;-55
2022/03/18 09:20:16;;;;;;;1.13;0.40;;;;;;;;;;5002647;28;20542;-55
2022/03/18 09:22:42;;;;;;;0.85;0.40;;;;;;;;;;5002893;28;20184;-52
2022/03/18 09:25:09;;;;;;;1.23;0.40;;;;;;;;;;5003857;28;20052;-54
2022/03/18 09:27:35;;;;;;;1.33;0.47;;;;;;;;;;5005556;28;20162;-56
2022/03/18 09:30:01;;;;;;;0.40;0.30;;;;;;;;;;5004444;28;20151;-55
2022/03/18 09:32:27;;;;;;;0.57;0.30;;;;;;;;;;5001936;28;20046;-55
2022/03/18 09:34:54;;;;;;;0.98;0.40;;;;;;;;;;5046413;28;20038;-55
2022/03/18 09:37:20;;;;;;;1.40;0.40;;;;;;;;;;5002267;28;20124;-54
2022/03/18 09:39:46;;;;;;;0.68;0.30;;;;;;;;;;5002391;28;20075;-54
2022/03/18 09:42:12;;;;;;;1.70;0.45;;;;;;;;;;5003348;28;20042;-55
2022/03/18 09:44:38;;;;;;;1.20;0.40;;;;;;;;;;5002709;28;20091;-55
2022/03/18 09:47:05;;;;;;;2.72;0.40;;;;;;;;;;5053619;28;20036;-55
2022/03/18 09:49:31;;;;;;;1.90;0.50;;;;;;;;;;5013727;28;20653;-53
2022/03/18 09:51:57;;;;;;;1.25;0.40;;;;;;;;;;5002475;28;20049;-55
2022/03/18 09:54:23;;;;;;;0.75;0.35;;;;;;;;;;5003412;28;20029;-55
2022/03/18 09:56:49;;;;;;;2.20;0.50;;;;;;;;;;5003754;28;20367;-55
2022/03/18 09:59:15;;;;;;;4.97;0.70;;;;;;;;;;5004315;28;20029;-55
2022/03/18 10:01:41;;;;;;;1.63;0.50;;;;;;;;;;5001114;28;20060;-54
2022/03/18 10:04:11;;;;;;;1.77;0.50;;;;;;;;;;5003100;28;20061;-55
2022/03/18 10:06:39;;;;;;;1.50;0.50;;;;;;;;;;5003984;28;20057;-55
2022/03/18 10:09:05;;;;;;;1.73;0.50;;;;;;;;;;5003350;28;20038;-55
2022/03/18 10:11:32;;;;;;;0.95;0.40;;;;;;;;;;5002306;27;20134;-55
2022/03/18 10:14:06;;;;;;;1.67;0.50;;;;;;;;;;5079289;27;20041;-54
2022/03/18 10:16:45;;;;;;;2.58;0.60;;;;;;;;;;5005256;28;20045;-55
2022/03/18 10:19:15;;;;;;;1.02;0.40;;;;;;;;;;5006795;28;20049;-55
2022/03/18 10:21:56;;;;;;;2.08;0.60;;;;;;;;;;5005061;28;20124;-54
2022/03/18 10:24:23;;;;;;;3.20;0.75;;;;;;;;;;5006613;28;20045;-55
2022/03/18 10:26:52;;;;;;;2.35;0.60;;;;;;;;;;5006758;28;20401;-53
2022/03/18 10:29:21;;;;;;;2.30;0.80;;;;;;;;;;5005801;28;20034;-56
2022/03/18 10:31:58;;;;;;;3.03;0.70;;;;;;;;;;5004828;28;20050;-55
2022/03/18 10:37:21;;;;;;;7.55;0.65;;;;;;;;;;5006624;28;20087;-56
2022/03/18 10:39:48;;;;;;;1.35;0.50;;;;;;;;;;5008628;28;20666;-55
2022/03/18 10:42:18;;;;;;;4.85;0.77;;;;;;;;;;5006058;28;20042;-55
2022/03/18 10:44:54;;;;;;;3.35;0.80;;;;;;;;;;5008022;28;20061;-56
2022/03/18 10:47:28;;;;;;;4.85;0.75;;;;;;;;;;4987954;28;20045;-56
2022/03/18 10:50:11;;;;;;;1.20;0.43;;;;;;;;;;5006519;28;20042;-56
2022/03/18 10:52:38;;;;;;;2.20;0.50;;;;;;;;;;5004806;28;20520;-55
2022/03/18 10:55:28;;;;;;;1.05;0.40;;;;;;;;;;5006255;28;20528;-54
2022/03/18 10:57:56;;;;;;;2.25;0.65;;;;;;;;;;5009118;28;20133;-56
2022/03/18 11:00:23;;;;;;;1.85;0.50;;;;;;;;;;5006881;28;20523;-52
2022/03/18 11:02:52;;;;;;;2.65;0.60;;;;;;;;;;5006784;28;20042;-56
2022/03/18 11:05:22;;;;;;;1.40;0.50;;;;;;;;;;5006368;28;20069;-55
2022/03/18 11:07:50;;;;;;;1.77;0.57;;;;;;;;;;5008772;27;20041;-54
2022/03/18 11:13:03;;;;;;;3.58;0.60;;;;;;;;;;5007604;28;20045;-54
2022/03/18 11:15:32;;;;;;;1.80;0.52;;;;;;;;;;5006245;28;20456;-56
2022/03/18 11:18:03;;;;;;;3.70;0.80;;;;;;;;;;4990368;28;20065;-56
2022/03/18 11:20:30;;;;;;;3.10;0.65;;;;;;;;;;5006034;28;20625;-55
2022/03/18 11:22:56;;;;;;;2.85;0.70;;;;;;;;;;5006439;28;20057;-56
2022/03/18 11:25:22;;;;;;;1.63;0.50;;;;;;;;;;5006954;28;20041;-56
2022/03/18 11:27:48;;;;;;;5.63;0.73;;;;;;;;;;5008271;28;20129;-56
2022/03/18 11:30:21;;;;;;;2.90;0.73;;;;;;;;;;5008267;27;20114;-52
2022/03/18 11:33:05;;;;;;;1.98;0.47;;;;;;;;;;5005791;28;20060;-53
2022/03/18 11:35:46;;;;;;;3.78;0.70;;;;;;;;;;5005070;28;20128;-54
2022/03/18 11:38:14;;;;;;;4.68;0.75;;;;;;;;;;5008175;28;20098;-53
2022/03/18 11:40:53;;;;;;;5.38;0.85;;;;;;;;;;5005639;28;20494;-55
2022/03/18 11:43:31;;;;;;;2.28;0.80;;;;;;;;;;5005016;27;20058;-55
2022/03/18 11:46:13;;;;;;;10.65;1.25;;;;;;;;;;5005860;28;20049;-55
2022/03/18 11:48:41;;;;;;;5.72;0.95;;;;;;;;;;4997629;28;20789;-55
2022/03/18 11:51:25;;;;;;;4.18;1.00;;;;;;;;;;5006356;28;20072;-53
2022/03/18 11:53:54;;;;;;;;;;;;;;;;;;5005707;28;20042;-54
2022/03/18 11:56:38;;;;;;;3.25;1.10;;;;;;;;;;5003798;28;20278;-55
2022/03/18 11:59:24;;;;;;;10.55;1.30;;;;;;;;;;5006328;28;20098;-54
2022/03/18 12:02:11;;;;;;;5.95;0.93;;;;;;;;;;5006174;28;20056;-53
2022/03/18 12:04:39;;;;;;;5.43;1.27;;;;;;;;;;5005301;28;20044;-55
2022/03/18 12:07:14;;;;;;;8.02;1.30;;;;;;;;;;5006737;27;20127;-54
2022/03/18 12:09:50;;;;;;;4.78;1.17;;;;;;;;;;5005155;28;20050;-56
2022/03/18 12:12:17;;;;;;;7.13;1.00;;;;;;;;;;5007392;27;21001;-56
2022/03/18 12:14:43;;;;;;;7.13;1.55;;;;;;;;;;5001577;28;20042;-56
2022/03/18 12:17:09;;;;;;;18.30;2.13;;;;;;;;;;5069365;27;20035;-55
2022/03/18 12:19:39;;;;;;;15.27;1.63;;;;;;;;;;5009469;28;20037;-56
2022/03/18 12:22:05;;;;;;;7.72;1.40;;;;;;;;;;5004034;28;20586;-56
2022/03/18 12:24:32;;;;;;;16.33;1.90;;;;;;;;;;5004268;28;20049;-55
2022/03/18 12:27:01;;;;;;;6.13;1.48;;;;;;;;;;5005665;27;20056;-55
2022/03/18 12:29:28;;;;;;;4.78;1.13;;;;;;;;;;5004363;28;20324;-52
2022/03/18 12:32:03;;;;;;;15.48;1.45;;;;;;;;;;5003303;27;20038;-55
2022/03/18 12:34:29;;;;;;;5.90;1.08;;;;;;;;;;5004361;27;20034;-54
2022/03/18 12:36:55;;;;;;;3.22;0.77;;;;;;;;;;5005533;28;20102;-54
2022/03/18 12:39:21;;;;;;;12.07;1.00;;;;;;;;;;4986935;28;20073;-56
2022/03/18 12:41:46;;;;;;;15.75;1.20;;;;;;;;;;5005067;28;20116;-55
2022/03/18 12:44:12;;;;;;;5.75;1.30;;;;;;;;;;5004942;28;20133;-55
2022/03/18 12:46:40;;;;;;;6.30;0.90;;;;;;;;;;4999208;28;20045;-57
2022/03/18 12:49:09;;;;;;;4.97;1.00;;;;;;;;;;5007726;27;20395;-56
2022/03/18 12:51:36;;;;;;;8.30;1.35;;;;;;;;;;5004879;28;20544;-54
2022/03/18 12:54:02;;;;;;;9.02;1.30;;;;;;;;;;5002494;28;20506;-54
2022/03/18 12:56:28;;;;;;;9.05;1.55;;;;;;;;;;5003944;28;20042;-56
2022/03/18 12:58:54;;;;;;;11.07;1.65;;;;;;;;;;5003244;28;20137;-52
2022/03/18 13:01:20;;;;;;;6.75;1.50;;;;;;;;;;5004738;27;20030;-55
2022/03/18 13:03:50;;;;;;;9.93;1.25;;;;;;;;;;5006683;28;20154;-53
2022/03/18 13:06:20;;;;;;;7.40;1.35;;;;;;;;;;5004166;27;20041;-55
2022/03/18 13:08:50;;;;;;;7.97;1.20;;;;;;;;;;5003921;28;20057;-56
2022/03/18 13:11:17;;;;;;;10.43;1.52;;;;;;;;;;5037419;27;20031;-56
2022/03/18 13:13:46;;;;;;;3.05;1.08;;;;;;;;;;5046216;27;20037;-54
2022/03/18 13:16:13;;;;;;;8.20;1.25;;;;;;;;;;5003672;28;20080;-55
2022/03/18 13:18:47;;;;;;;15.75;1.33;;;;;;;;;;5005245;27;20042;-56
2022/03/18 13:21:14;;;;;;;12.27;1.75;;;;;;;;;;5075505;27;20054;-54
2022/03/18 13:23:40;;;;;;;16.35;1.75;;;;;;;;;;5005909;28;20061;-56
2022/03/18 13:26:10;;;;;;;21.38;2.08;;;;;;;;;;5004073;28;20030;-55
2022/03/18 13:28:36;;;;;;;12.07;1.80;;;;;;;;;;5003085;28;20090;-56
2022/03/18 13:33:46;;;;;;;6.82;1.95;;;;;;;;;;5012232;28;20045;-56
2022/03/18 13:36:26;;;;;;;4.93;1.42;;;;;;;;;;5068612;27;20374;-55
2022/03/18 13:38:53;;;;;;;4.80;1.45;;;;;;;;;;5005103;28;20056;-57
2022/03/18 13:41:19;;;;;;;4.95;1.25;;;;;;;;;;5008005;28;20478;-56
2022/03/18 13:43:52;;;;;;;8.13;1.58;;;;;;;;;;5005971;28;20076;-53
2022/03/18 13:46:19;;;;;;;4.38;1.33;;;;;;;;;;5004167;28;20041;-53
2022/03/18 13:48:48;;;;;;;7.00;1.10;;;;;;;;;;5004277;28;20044;-56
2022/03/18 13:51:33;;;;;;;7.38;1.60;;;;;;;;;;5005461;28;20132;-55
2022/03/18 13:54:25;;;;;;;19.45;1.60;;;;;;;;;;5004521;28;20069;-56
2022/03/18 13:57:01;;;;;;;6.10;1.25;;;;;;;;;;5017677;28;20066;-55
2022/03/18 13:59:27;;;;;;;11.05;1.55;;;;;;;;;;5057933;28;20034;-55
2022/03/18 14:02:13;;;;;;;16.35;1.63;;;;;;;;;;5005132;28;20120;-55
2022/03/18 14:04:40;;;;;;;11.20;1.30;;;;;;;;;;5050740;28;20128;-53
2022/03/18 14:07:07;;;;;;;3.85;1.00;;;;;;;;;;5060345;28;20043;-52
2022/03/18 14:09:33;;;;;;;13.80;1.23;;;;;;;;;;5058102;28;20885;-53
2022/03/18 14:12:12;;;;;;;5.18;1.45;;;;;;;;;;5012568;28;20097;-52
2022/03/18 14:14:39;;;;;;;6.32;1.35;;;;;;;;;;5051241;27;20391;-53
2022/03/18 14:17:12;;;;;;;7.88;1.35;;;;;;;;;;5035105;28;20041;-55
2022/03/18 14:19:42;;;;;;;7.90;1.45;;;;;;;;;;5001710;28;20068;-54
2022/03/18 14:22:26;;;;;;;9.95;1.15;;;;;;;;;;5004936;28;20108;-55
2022/03/18 14:24:52;;;;;;;5.13;1.63;;;;;;;;;;5000538;28;20050;-55
2022/03/18 14:27:18;;;;;;;12.38;1.38;;;;;;;;;;5003273;28;20087;-54
2022/03/18 14:29:44;;;;;;;8.10;1.55;;;;;;;;;;4989005;28;20053;-54
2022/03/18 14:32:10;;;;;;;6.10;1.75;;;;;;;;;;5006766;28;20037;-55
2022/03/18 14:34:36;;;;;;;13.05;1.80;;;;;;;;;;5002454;28;20719;-56
2022/03/18 14:37:02;;;;;;;20.08;3.08;;;;;;;;;;5004483;28;20064;-55
2022/03/18 14:39:28;;;;;;;17.83;2.42;;;;;;;;;;5040394;27;20096;-54
2022/03/18 14:41:53;;;;;;;15.15;1.80;;;;;;;;;;5039423;28;20086;-55
2022/03/18 14:44:19;;;;;;;11.00;1.88;;;;;;;;;;5004208;27;20058;-55
2022/03/18 14:46:45;;;;;;;10.18;1.83;;;;;;;;;;5003549;28;20042;-55
2022/03/18 14:49:11;;;;;;;12.68;1.55;;;;;;;;;;5004808;28;20038;-55
2022/03/18 14:51:37;;;;;;;5.80;1.02;;;;;;;;;;4994861;28;20511;-56
2022/03/18 14:54:03;;;;;;;4.90;1.27;;;;;;;;;;5002823;28;20065;-55
2022/03/18 14:56:29;;;;;;;7.25;1.55;;;;;;;;;;5001373;28;20086;-55
2022/03/18 14:58:57;;;;;;;9.45;1.20;;;;;;;;;;5004486;28;20482;-55
2022/03/18 15:01:24;;;;;;;16.25;1.50;;;;;;;;;;4991483;28;20367;-52
2022/03/18 15:03:51;;;;;;;5.30;1.15;;;;;;;;;;5006089;27;20053;-54
2022/03/18 15:06:17;;;;;;;12.75;1.85;;;;;;;;;;5005258;27;20367;-55
2022/03/18 15:08:52;;;;;;;2.33;0.82;;;;;;;;;;5006302;28;20046;-55
2022/03/18 15:11:18;;;;;;;10.73;1.42;;;;;;;;;;5036590;27;20035;-54